Aviation Digital Data Service (ADDS)

Output produced by METARs form (1130 UTC 19 January 2019)
found at http://www.aviationweather.gov/metar/data/
 
EEEI 191050Z 23008KT 9999 SCT026 BKN034 M01/M05 Q1007 R24/690195 NOSIG
TAF EEEI 190530Z 1906/2006 27010KT 9999 BKN015 
     TEMPO 1906/1908 3000 SHSN BKN008 SCT020TCU 
     BECMG 1914/1916 24012G22KT 
     TEMPO 1915/1920 2000 SHSN BKN005 SCT018TCU 
     TEMPO 2000/2003 30020G32KT 1500 SHSN BKN004 SCT015TCU
       
EEKA 190850Z 25007KT 9999 SCT033 M00/M05 Q1008
TAF EEKA 190500Z 1906/1912 27012KT 9999 BKN020 
     PROB40 
     TEMPO 1906/1912 4000 SHSN BKN012 SCT020CB
       
EEKE 191050Z 26004KT 210V290 CAVOK M01/M02 Q1010 R17/190095
TAF EEKE 190800Z 1909/1915 27007KT 9999 BKN025 
     PROB40 
     TEMPO 1909/1912 4000 SHSN SCT015 SCT020CB 
     BECMG 1913/1915 25015G25KT
       
EEPU 191050Z 25007KT 9999 BKN035 M00/M04 Q1009
EETN 191120Z 24007KT 9999 FEW031 BKN047 M02/M04 Q1006 R08/490295 NOSIG
TAF EETN 191121Z 1912/2012 24010KT 9999 BKN020 
     BECMG 1914/1916 4000 SN SCT006 BKN010 
     TEMPO 1916/1919 0700 +SN VV005 
     PROB40 
     TEMPO 1916/1919 FZRA 
     BECMG 1919/1921 27014G25KT 9999 NSW SCT010 BKN020 
     TEMPO 1921/2006 1000 +SHSN BLSN BKN005 SCT015CB 
     BECMG 2000/2002 33016G26KT
       
EETU 191050Z AUTO 24011KT 9999 FEW036/// OVC057/// M03/M06 Q1008